Little America, Illinois
Current Conditions -  °F | °C
As of 6:55 PM on Friday 24 Oct 2014 (Local Time) from KMQB Reporting Station
Clear Clear  
Wind Chill: 64°   Ceiling: Unl
Heat Index: 64°   Visibility: 10mi
Dew Point: 53°   Wind: 8mph
Humidity: 67%   Direction: 180°S
Pressure: 29.96"   Gusts: NA
Location:  40.3324°N, 90.1539°W
Report Text: KMQB 242355Z AUTO 18007KT 10SM CLR 18/12 A2996 RMK AO2 T01760115 10215 20150
Loading
Personal Weather Stations






























Interactive Weather Map New forecast layout! Learn more

10-Day Weather Forecast

Advertisements
Track Severe Weather on mobile